createdAt,value
2023-03-04T00:02:47.272Z,0.90
2023-03-04T00:05:34.686Z,0.90
2023-03-04T00:08:23.864Z,0.90
2023-03-04T00:11:11.370Z,0.90
2023-03-04T00:13:59.766Z,1.00
2023-03-04T00:16:49.164Z,1.00
2023-03-04T00:19:36.711Z,1.00
2023-03-04T00:22:24.351Z,1.00
2023-03-04T00:25:13.451Z,1.00
2023-03-04T00:28:01.127Z,1.00
2023-03-04T00:30:48.557Z,1.00
2023-03-04T00:33:37.349Z,1.00
2023-03-04T00:36:25.150Z,1.10
2023-03-04T00:39:12.970Z,1.10
2023-03-04T00:42:02.003Z,1.10
2023-03-04T00:44:51.546Z,1.10
2023-03-04T00:47:39.372Z,1.10
2023-03-04T00:50:27.249Z,1.10
2023-03-04T00:53:14.878Z,1.10
2023-03-04T00:56:02.242Z,1.20
2023-03-04T00:58:51.182Z,1.20
2023-03-04T01:01:39.096Z,1.20
2023-03-04T01:04:26.374Z,1.20
2023-03-04T01:07:14.442Z,1.30
2023-03-04T01:10:01.900Z,1.30
2023-03-04T01:12:49.625Z,1.30
2023-03-04T01:15:38.350Z,1.30
2023-03-04T01:18:26.676Z,1.30
2023-03-04T01:21:14.429Z,1.40
2023-03-04T01:24:01.818Z,1.40
2023-03-04T01:26:49.652Z,1.40
2023-03-04T01:29:40.360Z,1.40
2023-03-04T01:32:29.192Z,1.40
2023-03-04T01:35:16.966Z,1.40
2023-03-04T01:38:05.271Z,1.40
2023-03-04T01:40:53.180Z,1.40
2023-03-04T01:43:41.469Z,1.40
2023-03-04T01:46:29.732Z,1.40
2023-03-04T01:49:20.266Z,1.40
2023-03-04T01:52:11.822Z,1.40
2023-03-04T01:54:59.292Z,1.40
2023-03-04T01:57:47.852Z,1.50
2023-03-04T02:00:37.327Z,1.50
2023-03-04T02:03:26.012Z,1.50
2023-03-04T02:06:15.792Z,1.50
2023-03-04T02:09:03.423Z,1.50
2023-03-04T02:11:52.026Z,1.50
2023-03-04T02:14:40.533Z,1.60
2023-03-04T02:17:28.660Z,1.60
2023-03-04T02:20:26.662Z,1.60
2023-03-04T02:23:22.717Z,1.60
2023-03-04T02:26:15.244Z,1.60
2023-03-04T02:29:04.765Z,1.60
2023-03-04T02:31:54.834Z,1.60
2023-03-04T02:34:50.185Z,1.60
2023-03-04T02:37:37.537Z,1.70
2023-03-04T02:40:28.314Z,1.60
2023-03-04T02:43:17.055Z,1.60
2023-03-04T02:46:06.000Z,1.60
2023-03-04T02:48:54.292Z,1.70
2023-03-04T02:51:43.374Z,1.70
2023-03-04T02:54:31.433Z,1.70
2023-03-04T02:57:19.344Z,1.70
2023-03-04T03:00:14.618Z,1.70
2023-03-04T03:03:03.530Z,1.70
2023-03-04T03:05:51.233Z,1.60
2023-03-04T03:08:39.068Z,1.70
2023-03-04T03:11:26.837Z,1.70
2023-03-04T03:14:15.993Z,1.70
2023-03-04T03:17:05.553Z,1.60
2023-03-04T03:19:53.175Z,1.70
2023-03-04T03:22:40.883Z,1.70
2023-03-04T03:25:30.262Z,1.60
2023-03-04T03:28:18.594Z,1.70
2023-03-04T03:31:06.868Z,1.70
2023-03-04T03:33:55.684Z,1.70
2023-03-04T03:36:43.474Z,1.70
2023-03-04T03:39:31.218Z,1.70
2023-03-04T03:42:18.808Z,1.70
2023-03-04T03:45:07.327Z,1.70
2023-03-04T03:47:54.933Z,1.70
2023-03-04T03:50:43.615Z,1.70
2023-03-04T03:53:31.060Z,1.70
2023-03-04T03:56:18.571Z,1.70
2023-03-04T03:59:05.982Z,1.70
2023-03-04T04:01:53.690Z,1.70
2023-03-04T04:04:41.209Z,1.70
2023-03-04T04:07:30.129Z,1.70
2023-03-04T04:10:17.842Z,1.70
2023-03-04T04:13:05.772Z,1.70
2023-03-04T04:15:53.581Z,1.70
2023-03-04T04:18:40.937Z,1.70
2023-03-04T04:21:28.351Z,1.70
2023-03-04T04:24:17.689Z,1.70
2023-03-04T04:27:05.567Z,1.80
2023-03-04T04:29:53.121Z,1.80
2023-03-04T04:32:40.638Z,1.80
2023-03-04T04:35:28.136Z,1.80
2023-03-04T04:38:15.865Z,1.80
2023-03-04T04:41:05.422Z,1.80
2023-03-04T04:43:53.481Z,1.80
2023-03-04T04:46:41.790Z,1.90
2023-03-04T04:49:29.454Z,1.90
2023-03-04T04:52:16.760Z,1.90
2023-03-04T04:55:04.421Z,1.90
2023-03-04T04:57:53.173Z,1.90
2023-03-04T05:00:40.968Z,1.90
2023-03-04T05:03:28.580Z,1.90
2023-03-04T05:06:16.292Z,1.90
2023-03-04T05:09:04.531Z,1.90
2023-03-04T05:11:52.091Z,1.90
2023-03-04T05:14:41.395Z,1.90
2023-03-04T05:17:28.732Z,1.90
2023-03-04T05:20:16.612Z,1.90
2023-03-04T05:23:04.719Z,2.00
2023-03-04T05:25:52.530Z,2.00
2023-03-04T05:28:40.126Z,2.00
2023-03-04T05:31:29.206Z,2.00
2023-03-04T05:34:17.046Z,2.00
2023-03-04T05:37:04.832Z,2.00
2023-03-04T05:39:52.385Z,2.00
2023-03-04T05:42:39.971Z,2.10
2023-03-04T05:45:28.193Z,2.00
2023-03-04T05:48:17.536Z,2.00
2023-03-04T05:51:05.121Z,2.10
2023-03-04T05:53:52.548Z,2.10
2023-03-04T05:56:40.167Z,2.10
2023-03-04T05:59:27.706Z,2.10
2023-03-04T06:02:15.177Z,2.10
2023-03-04T06:05:04.314Z,2.10
2023-03-04T06:07:51.751Z,2.10
2023-03-04T06:10:39.476Z,2.20
2023-03-04T06:13:27.890Z,2.20
2023-03-04T06:16:15.671Z,2.20
2023-03-04T06:19:03.196Z,2.30
2023-03-04T06:21:52.323Z,2.30
2023-03-04T06:24:40.218Z,2.30
2023-03-04T06:27:28.459Z,2.30
2023-03-04T06:30:16.789Z,2.30
2023-03-04T06:33:04.045Z,2.40
2023-03-04T06:35:55.479Z,2.40
2023-03-04T06:38:44.611Z,2.30
2023-03-04T06:41:32.302Z,2.40
2023-03-04T06:44:20.108Z,2.40
2023-03-04T06:47:07.905Z,2.40
2023-03-04T06:49:55.668Z,2.40
2023-03-04T06:52:43.602Z,2.40
2023-03-04T06:55:32.444Z,2.50
2023-03-04T06:58:20.115Z,2.50
2023-03-04T07:01:12.874Z,2.50
2023-03-04T07:04:00.623Z,2.50
2023-03-04T07:06:48.732Z,2.50
2023-03-04T07:09:37.002Z,2.50
2023-03-04T07:12:26.045Z,2.50
2023-03-04T07:15:13.772Z,2.60
2023-03-04T07:18:01.184Z,2.60
2023-03-04T07:20:48.616Z,2.60
2023-03-04T07:23:36.623Z,2.60
2023-03-04T07:26:24.302Z,2.60
2023-03-04T07:29:14.147Z,2.60
2023-03-04T07:32:01.762Z,2.60
2023-03-04T07:34:49.251Z,2.70
2023-03-04T07:37:36.693Z,2.60
2023-03-04T07:40:24.282Z,2.60
2023-03-04T07:43:13.714Z,2.60
2023-03-04T07:46:03.904Z,2.60
2023-03-04T07:48:51.301Z,2.70
2023-03-04T07:51:39.104Z,2.60
2023-03-04T07:54:26.759Z,2.60
2023-03-04T07:57:14.205Z,2.70
2023-03-04T08:00:01.493Z,2.70
2023-03-04T08:02:50.838Z,2.70
2023-03-04T08:05:40.706Z,2.70
2023-03-04T08:08:28.434Z,2.70
2023-03-04T08:11:17.838Z,2.70
2023-03-04T08:14:05.886Z,2.80
2023-03-04T08:16:53.303Z,2.80
2023-03-04T08:19:42.463Z,2.80
2023-03-04T08:22:29.838Z,2.80
2023-03-04T08:25:17.264Z,2.90
2023-03-04T08:28:04.732Z,2.90
2023-03-04T08:30:54.815Z,2.90
2023-03-04T08:33:43.258Z,3.00
2023-03-04T08:36:32.491Z,2.90
2023-03-04T08:39:20.854Z,3.10
2023-03-04T08:42:08.422Z,3.10
2023-03-04T08:44:55.945Z,3.10
2023-03-04T08:47:43.539Z,3.10
2023-03-04T08:50:31.092Z,3.10
2023-03-04T08:53:20.789Z,3.10
2023-03-04T08:56:09.785Z,3.20
2023-03-04T08:58:57.154Z,3.10
2023-03-04T09:01:44.704Z,3.10
2023-03-04T09:04:32.285Z,3.20
2023-03-04T09:07:19.937Z,3.20
2023-03-04T09:10:10.668Z,3.30
2023-03-04T09:12:59.098Z,3.30
2023-03-04T09:15:47.560Z,3.30
2023-03-04T09:18:35.043Z,3.30
2023-03-04T09:21:22.568Z,3.30
2023-03-04T09:24:09.952Z,3.30
2023-03-04T09:26:58.665Z,3.30
2023-03-04T09:29:46.313Z,3.40
2023-03-04T09:32:33.941Z,3.40
2023-03-04T09:35:21.712Z,3.50
2023-03-04T09:38:09.226Z,3.50
2023-03-04T09:40:57.310Z,3.60
2023-03-04T09:43:47.730Z,3.60
2023-03-04T09:46:39.806Z,3.60
2023-03-04T09:49:27.561Z,3.70
2023-03-04T09:52:29.086Z,3.70
2023-03-04T09:55:22.314Z,3.70
2023-03-04T09:58:21.652Z,3.70
2023-03-04T10:01:16.752Z,3.60
2023-03-04T10:04:14.166Z,3.60
2023-03-04T10:07:03.707Z,3.70
2023-03-04T10:09:55.039Z,3.70
2023-03-04T10:12:47.556Z,3.80
2023-03-04T10:15:39.096Z,3.90
2023-03-04T10:18:33.988Z,4.00
2023-03-04T10:21:27.595Z,3.90
2023-03-04T10:24:18.261Z,3.90
2023-03-04T10:27:11.776Z,4.00
2023-03-04T10:30:01.765Z,4.10
2023-03-04T10:32:49.080Z,4.10
2023-03-04T10:35:39.602Z,4.20
2023-03-04T10:38:27.252Z,4.10
2023-03-04T10:41:17.278Z,4.20
2023-03-04T10:44:18.707Z,4.30
2023-03-04T10:47:11.662Z,4.40
2023-03-04T10:50:00.988Z,4.40
2023-03-04T10:52:53.299Z,4.40
2023-03-04T10:55:45.492Z,4.30
2023-03-04T10:58:32.841Z,4.30
2023-03-04T11:01:25.431Z,4.30
2023-03-04T11:04:19.129Z,4.30
2023-03-04T11:07:10.764Z,4.40
2023-03-04T11:10:10.270Z,4.40
2023-03-04T11:13:02.118Z,4.50
2023-03-04T11:15:57.911Z,4.60
2023-03-04T11:18:51.427Z,4.70
2023-03-04T11:21:41.793Z,4.70
2023-03-04T11:24:30.948Z,4.80
2023-03-04T11:27:25.128Z,4.90
2023-03-04T11:30:30.325Z,5.10
2023-03-04T11:33:24.583Z,5.20
2023-03-04T11:36:34.084Z,5.20
2023-03-04T11:39:29.002Z,5.30
2023-03-04T11:42:29.534Z,5.30
2023-03-04T11:45:28.701Z,5.40
2023-03-04T11:48:20.710Z,5.50
2023-03-04T11:51:13.101Z,5.60
2023-03-04T11:54:17.108Z,5.80
2023-03-04T11:57:13.199Z,5.90
2023-03-04T12:00:17.237Z,6.00
2023-03-04T12:03:23.602Z,6.00
2023-03-04T12:06:17.193Z,5.90
2023-03-04T12:09:30.556Z,5.80
2023-03-04T12:12:43.872Z,5.70
2023-03-04T12:15:43.242Z,5.70
2023-03-04T12:18:52.719Z,5.70
2023-03-04T12:21:57.847Z,5.80
2023-03-04T12:25:25.769Z,5.80
2023-03-04T12:28:52.390Z,5.70
2023-03-04T12:31:43.802Z,5.60
2023-03-04T12:34:52.659Z,5.50
2023-03-04T12:37:55.303Z,5.60
2023-03-04T12:40:49.065Z,5.70
2023-03-04T12:43:47.805Z,5.90
2023-03-04T12:46:45.619Z,6.10
2023-03-04T12:49:57.115Z,6.20
2023-03-04T12:52:52.802Z,6.30
2023-03-04T12:55:43.322Z,6.30
2023-03-04T12:58:33.723Z,6.30
2023-03-04T13:01:27.952Z,6.10
2023-03-04T13:04:23.622Z,6.00
2023-03-04T13:07:17.723Z,6.00
2023-03-04T13:10:10.604Z,6.10
2023-03-04T13:12:59.498Z,6.10
2023-03-04T13:16:02.223Z,6.00
2023-03-04T13:18:50.028Z,5.80
2023-03-04T13:21:47.449Z,5.60
2023-03-04T13:24:50.713Z,5.50
2023-03-04T13:27:48.694Z,5.40
2023-03-04T13:31:08.474Z,5.40
2023-03-04T13:34:05.778Z,5.50
2023-03-04T13:36:59.262Z,5.70
2023-03-04T13:39:46.886Z,5.80
2023-03-04T13:42:43.102Z,5.90
2023-03-04T13:45:34.238Z,6.10
2023-03-04T13:48:36.443Z,6.60
2023-03-04T13:51:29.750Z,6.80
2023-03-04T13:54:27.607Z,6.80
2023-03-04T13:57:20.651Z,6.60
2023-03-04T14:00:14.668Z,6.40
2023-03-04T14:03:15.244Z,6.30
2023-03-04T14:06:17.066Z,6.30
2023-03-04T14:09:14.991Z,6.10
2023-03-04T14:12:06.408Z,6.00
2023-03-04T14:14:56.236Z,6.00
2023-03-04T14:17:48.322Z,6.00
2023-03-04T14:20:38.711Z,6.00
2023-03-04T14:23:29.643Z,6.00
2023-03-04T14:26:19.809Z,5.90
2023-03-04T14:29:23.696Z,5.90
2023-03-04T14:32:14.087Z,5.80
2023-03-04T14:35:05.832Z,5.80
2023-03-04T14:37:59.251Z,5.70
2023-03-04T14:40:51.642Z,5.70
2023-03-04T14:43:44.479Z,5.70
2023-03-04T14:46:37.438Z,5.60
2023-03-04T14:49:25.134Z,5.50
2023-03-04T14:52:28.468Z,5.40
2023-03-04T14:55:24.689Z,5.30
2023-03-04T14:58:23.253Z,5.20
2023-03-04T15:01:17.837Z,5.20
2023-03-04T15:04:09.033Z,5.10
2023-03-04T15:06:56.851Z,5.10
2023-03-04T15:09:50.697Z,5.10
2023-03-04T15:12:38.844Z,5.10
2023-03-04T15:15:42.245Z,5.20
2023-03-04T15:18:31.003Z,5.20
2023-03-04T15:21:33.380Z,5.20
2023-03-04T15:24:21.623Z,5.20
2023-03-04T15:27:11.806Z,5.20
2023-03-04T15:30:02.289Z,5.20
2023-03-04T15:32:49.748Z,5.10
2023-03-04T15:35:37.255Z,5.10
2023-03-04T15:38:27.063Z,5.10
2023-03-04T15:41:19.952Z,5.10
2023-03-04T15:44:08.369Z,5.10
2023-03-04T15:46:55.901Z,5.10
2023-03-04T15:49:44.089Z,5.10
2023-03-04T15:52:33.630Z,5.00
2023-03-04T15:55:23.225Z,5.00
2023-03-04T15:58:12.530Z,5.00
2023-03-04T16:01:00.892Z,5.00
2023-03-04T16:03:48.602Z,5.00
2023-03-04T16:06:36.794Z,5.00
2023-03-04T16:09:24.474Z,5.00
2023-03-04T16:12:14.303Z,5.00
2023-03-04T16:15:01.940Z,5.00
2023-03-04T16:17:49.628Z,4.90
2023-03-04T16:20:38.967Z,4.90
2023-03-04T16:23:26.511Z,4.90
2023-03-04T16:26:16.051Z,5.00
2023-03-04T16:29:04.918Z,5.00
2023-03-04T16:31:55.136Z,5.00
2023-03-04T16:34:42.665Z,5.00
2023-03-04T16:37:30.051Z,5.00
2023-03-04T16:40:20.607Z,5.00
2023-03-04T16:43:07.999Z,4.90
2023-03-04T16:45:56.883Z,5.00
2023-03-04T16:48:44.671Z,5.00
2023-03-04T16:51:36.448Z,4.90
2023-03-04T16:54:30.436Z,4.80
2023-03-04T16:57:18.102Z,4.60
2023-03-04T17:00:08.190Z,4.50
2023-03-04T17:02:59.194Z,4.50
2023-03-04T17:05:47.854Z,4.40
2023-03-04T17:08:35.408Z,4.40
2023-03-04T17:11:24.807Z,4.40
2023-03-04T17:14:12.375Z,4.30
2023-03-04T17:16:59.783Z,4.30
2023-03-04T17:19:49.123Z,4.20
2023-03-04T17:22:37.369Z,4.20
2023-03-04T17:25:24.883Z,4.20
2023-03-04T17:28:12.397Z,4.10
2023-03-04T17:30:59.960Z,4.10
2023-03-04T17:33:48.349Z,4.00
2023-03-04T17:36:37.218Z,4.00
2023-03-04T17:39:24.926Z,4.10
2023-03-04T17:42:12.681Z,4.10
2023-03-04T17:45:00.194Z,4.10
2023-03-04T17:47:47.639Z,4.10
2023-03-04T17:50:35.231Z,4.20
2023-03-04T17:53:24.030Z,4.20
2023-03-04T17:56:13.539Z,4.20
2023-03-04T17:59:02.494Z,4.10
2023-03-04T18:01:53.927Z,4.10
2023-03-04T18:04:41.811Z,4.10
2023-03-04T18:07:29.405Z,4.10
2023-03-04T18:10:18.853Z,4.10
2023-03-04T18:13:06.783Z,4.10
2023-03-04T18:15:55.450Z,4.00
2023-03-04T18:18:43.663Z,4.00
2023-03-04T18:21:31.725Z,4.00
2023-03-04T18:24:19.401Z,4.00
2023-03-04T18:27:08.540Z,4.00
2023-03-04T18:29:56.790Z,4.00
2023-03-04T18:32:51.905Z,4.00
2023-03-04T18:35:40.187Z,4.00
2023-03-04T18:38:28.418Z,4.10
2023-03-04T18:41:17.273Z,4.20
2023-03-04T18:44:09.769Z,4.20
2023-03-04T18:46:58.966Z,4.30
2023-03-04T18:49:47.795Z,4.30
2023-03-04T18:52:36.046Z,4.30
2023-03-04T18:55:24.150Z,4.40
2023-03-04T18:58:12.740Z,4.30
2023-03-04T19:01:05.135Z,4.10
2023-03-04T19:03:54.446Z,3.90
2023-03-04T19:06:42.150Z,3.80
2023-03-04T19:09:29.931Z,3.70
2023-03-04T19:12:17.548Z,3.70
2023-03-04T19:15:06.240Z,3.70
2023-03-04T19:17:55.237Z,3.70
2023-03-04T19:20:43.562Z,3.70
2023-03-04T19:23:31.399Z,3.60
2023-03-04T19:26:18.823Z,3.60
2023-03-04T19:29:07.363Z,3.60
2023-03-04T19:31:54.611Z,3.60
2023-03-04T19:34:43.691Z,3.60
2023-03-04T19:37:31.277Z,3.60
2023-03-04T19:40:18.661Z,3.60
2023-03-04T19:43:05.996Z,3.60
2023-03-04T19:45:55.270Z,3.50
2023-03-04T19:48:45.188Z,3.50
2023-03-04T19:51:34.462Z,3.50
2023-03-04T19:54:21.715Z,3.40
2023-03-04T19:57:09.023Z,3.40
2023-03-04T19:59:56.553Z,3.30
2023-03-04T20:02:45.727Z,3.30
2023-03-04T20:05:33.069Z,3.30
2023-03-04T20:08:21.783Z,3.30
2023-03-04T20:11:13.026Z,3.30
2023-03-04T20:14:01.633Z,3.30
2023-03-04T20:16:49.483Z,3.20
2023-03-04T20:19:36.986Z,3.20
2023-03-04T20:22:24.650Z,3.20
2023-03-04T20:25:13.697Z,3.20
2023-03-04T20:28:01.367Z,3.20
2023-03-04T20:30:48.989Z,3.20
2023-03-04T20:33:36.233Z,3.20
2023-03-04T20:36:26.041Z,3.10
2023-03-04T20:39:27.954Z,3.10
2023-03-04T20:42:18.539Z,3.10
2023-03-04T20:45:08.931Z,3.10
2023-03-04T20:47:56.803Z,3.10
2023-03-04T20:50:44.805Z,3.10
2023-03-04T20:53:32.336Z,3.10
2023-03-04T20:56:19.735Z,3.00
2023-03-04T20:59:10.373Z,3.00
2023-03-04T21:01:59.417Z,3.00
2023-03-04T21:04:47.095Z,3.00
2023-03-04T21:07:34.919Z,2.90
2023-03-04T21:10:23.170Z,2.90
2023-03-04T21:13:12.829Z,2.90
2023-03-04T21:16:01.986Z,2.80
2023-03-04T21:18:49.805Z,2.80
2023-03-04T21:21:37.581Z,2.80
2023-03-04T21:24:26.455Z,2.80
2023-03-04T21:27:16.686Z,2.70
2023-03-04T21:30:04.701Z,2.70
2023-03-04T21:32:54.183Z,2.70
2023-03-04T21:35:41.752Z,2.70
2023-03-04T21:38:29.259Z,2.70
2023-03-04T21:41:19.140Z,2.70
2023-03-04T21:44:06.862Z,2.70
2023-03-04T21:46:54.422Z,2.70
2023-03-04T21:49:43.373Z,2.70
2023-03-04T21:52:31.549Z,2.70
2023-03-04T21:55:19.407Z,2.60
2023-03-04T21:58:06.801Z,2.60
2023-03-04T22:00:54.449Z,2.60
2023-03-04T22:03:41.894Z,2.60
2023-03-04T22:06:33.767Z,2.60
2023-03-04T22:09:21.292Z,2.60
2023-03-04T22:12:09.054Z,2.60
2023-03-04T22:14:56.270Z,2.60
2023-03-04T22:17:45.815Z,2.60
2023-03-04T22:20:35.530Z,2.60
2023-03-04T22:23:24.480Z,2.60
2023-03-04T22:26:14.973Z,2.50
2023-03-04T22:29:03.236Z,2.50
2023-03-04T22:31:51.087Z,2.50
2023-03-04T22:34:38.524Z,2.50
2023-03-04T22:37:26.052Z,2.40
2023-03-04T22:40:16.583Z,2.40
2023-03-04T22:43:04.534Z,2.40
2023-03-04T22:45:52.478Z,2.40
2023-03-04T22:48:39.918Z,2.30
2023-03-04T22:51:28.125Z,2.30
2023-03-04T22:54:17.031Z,2.30
2023-03-04T22:57:05.779Z,2.20
2023-03-04T22:59:53.896Z,2.20
2023-03-04T23:02:41.595Z,2.10
2023-03-04T23:05:29.471Z,2.10
2023-03-04T23:08:16.789Z,2.10
2023-03-04T23:11:08.905Z,2.00
2023-03-04T23:13:58.557Z,2.00
2023-03-04T23:16:47.430Z,2.00
2023-03-04T23:19:34.907Z,2.00
2023-03-04T23:22:22.479Z,1.90
2023-03-04T23:25:12.838Z,1.90
2023-03-04T23:28:00.211Z,1.90
2023-03-04T23:30:49.213Z,1.90
2023-03-04T23:33:37.007Z,1.80
2023-03-04T23:36:27.118Z,1.80
2023-03-04T23:39:14.689Z,1.80
2023-03-04T23:42:02.313Z,1.80
2023-03-04T23:44:50.259Z,1.80
2023-03-04T23:47:39.190Z,1.80
2023-03-04T23:50:27.029Z,1.70
2023-03-04T23:53:14.375Z,1.70
2023-03-04T23:56:01.920Z,1.70
2023-03-04T23:58:50.141Z,1.70
